サンフランシスコ の空港の天気 - METARとTAF

サンフランシスコ国際空港 ( KSFO / SFO ) - アメリカ カリフォルニア州サンマテオ郡
飛行場実況気象(Metar)
観測時間10/15 09:56 PDT (10/15 16:56 UTC)
風向・風速静穏 0m/s
視程6450m
天気現象もや
全天を覆う雲 雲底高度 150m
気温11.7℃
湿度89%
気圧1020.1hPa
METARKSFO 151656Z 00000KT 4SM BR OVC005 12/10 A3012 RMK AO2 SLP201 T01170100
過去の天気等 Google飛行場航空写真 Wunderground天気予報

過去48時間のMETAR

飛行場予報(TAF)
発表時間: 10/15 09:01 PDT (10/15 16:01 UTC)
予報対象時間: 15日9時 PDT ~ 16日11時 PDT
風向・風速西北西 3m/s
視程4830m
天気現象もや
全天を覆う雲 雲底高度 210m
15日11時 PDT から
風向・風速北 3m/s
視程10km以上
少しの雲 雲底高度 370m
15日14時 PDT から
風向・風速西 8m/s
視程10km以上
なし
15日21時 PDT から
風向・風速西北西 4m/s
視程10km以上
少しの雲 雲底高度 300m
16日2時 PDT から
風向・風速西北西 3m/s
視程10km以上
少しの雲 雲底高度 300m
16日5時 PDT から
風向・風速不定 2m/s
視程10km以上
全天の4割程度の雲 雲底高度 300m
16日10時 PDT から
風向・風速北西 3m/s
視程10km以上
少しの雲 雲底高度 370m
全天の4割程度の雲 雲底高度 6100m
KSFO 151601Z 1516/1618 29005KT 3SM BR OVC007
FM151830 35005KT P6SM FEW012
FM152130 28015KT P6SM SKC
FM160400 29008KT P6SM FEW010
FM160900 29006KT P6SM FEW010
FM161200 VRB04KT P6SM SCT010
FM161700 31006KT P6SM FEW012 SCT200